Aktualne dane pomiarowe

Uwaga, wersja testowa! Automatyczne pobieranie danych za pomocą narzędzi lub skryptów to umożliwiających jest zabronione.

Dane meteo z obszaru Polski uzyskane na podstawie depesz SYNOP pobieranych co godzinę z NWS. Najedź myszką na symbol przedstawiony w tabeli, aby uzyskać informacje co do jego znaczenia. Prosimy pamiętać, że to testowa wersja strony, która jeszcze nie jest ukończona. Stworzono również jest krótki FAQ dotyczący korzystania z tej podstrony Anomalie temperatury w chwili obecnej odniesione są do okresu referencyjnego 1951-2016. Okres ten będzie później zmieniony na 1981-2010. Kliknij ikonę aby pobrać plik CSV. Kliknij ikonę aby wygenerować mapę synoptyczną dla danego terminu.

Wybierz Datę:    

        

Rzeszów-Jasionka (12580)

Dane terminowe dla wybranej stacji. Kliknij datę, aby otrzymać dane z tego terminu dla wszystkich stacji.

TemperaturaZachmurzenieWiatrCiśnienieOpadyPogoda
 Data t td wb tx tn tg rh  Nt Nl Cl Cm Ch ws wd g1 g2 wx mslp ppp ch 24h 12h t ww ww w1 w2  
2019-06-09 23:00:00 16.8 16.6 16.6--- 9930.0wx-2wx--21023.3 997.5 -0.7---------
2019-06-09 22:00:00 17.7 16.9 17.1--- 9530.0wxwxwx2wx--21024.0 998.2 3.0---------
2019-06-09 21:00:00 18.8 16.4 17.1--- 8630.0wxwxwx3wx--31023.8 998.1 0.7---------
2019-06-09 20:00:00 19.2 16.1 17.0--- 8230.0wx-2wx--21023.8 998.2 0.8---------
2019-06-09 19:00:00 20.3 17.1 18.1--- 8230.0wxwxwx3wx---1023.5 998.0 0.2---------
2019-06-09 18:00:00 23.1 16.6 18.7 27.0 17.8- 6730.0wx-2wx--21022.7 997.4 -0.9- 0.012------
2019-06-09 17:00:00 25.6 15.9 19.3--- 5530.0wx-wx0---01022.5 997.4 -1.3---------
2019-06-09 16:00:00 24.7 16.4 19.2--- 6030.0wxwxwxwx2wx--21022.9 997.8 -1.4---------
2019-06-09 15:00:00 24.3 15.8 18.7--- 5930.0wxwxwxwx2wx--21023.5 998.3 -1.5---------
2019-06-09 14:00:00 24.1 16.1 18.8--- 6130.0wxwxwx3wx--31023.9 998.7 -1.6---------
2019-06-09 13:00:00 24.3 16.0 18.9--- 6030.0wxwxwx2wx--21024.4 999.2 -1.3---------
2019-06-09 12:00:00 23.2 17.2 19.1--- 6930.0wxwxwx2wx--21025.1 999.8 -1.0- 0.06------
2019-06-09 11:00:00 22.0 16.3 18.2--- 7030.0wxwxwx2wx--21025.71000.3 -0.5---------
2019-06-09 10:00:00 22.9 15.7 18.2--- 6430.0wxwxwx2wx--21025.91000.5 -0.5---------
2019-06-09 09:00:00 21.3 16.0 17.7--- 7230.0wxwxwx2wx--21026.31000.8 0.1---------
2019-06-09 08:00:00 20.1 15.7 17.1--- 7630.0wxwxwx1wx--11026.41000.8 0.4---------
2019-06-09 07:00:00 18.2 14.5 15.7--- 7930.0wxwxwx2wx--21026.81001.0 1.0---------
2019-06-09 06:00:00 17.8 12.9 14.6 25.6 15.6 13 7330.0wxwxwx3wx--31026.51000.7 1.0- 0.012------
2019-06-09 05:00:00 17.8 12.0 14.1--- 6930.0wxwxwx3wx---1026.21000.4 1.4---------
2019-06-09 04:00:00 17.0 11.9 13.7--- 7230.0wxwxwx3wx--31025.91000.0 1.0---------
2019-06-09 03:00:00 16.2 14.0 14.7--- 8730.0wxwxwx2wx--21025.6 999.7 1.5---------
2019-06-09 02:00:00 16.5 13.8 14.6--- 8430.0wxwxwx4wx--41024.9 999.0 1.3---------
2019-06-09 01:00:00 17.7 14.4 15.4--- 8130.0wxwxwx3wx--31024.8 999.0 1.6---------
2019-06-09 00:00:00 18.4 16.2 16.8--- 8730.0wx-3wx--31023.9 998.2 1.8- 0.06wx-w1--
2019-06-08 23:00:00 19.0 16.6 17.3--- 8630.0wxwxwx3wx--31023.3 997.7 1.7---------
2019-06-08 22:00:00 19.8 17.0 17.8--- 8430.0wx-wx4wx--41023.0 997.4 2.8---------
2019-06-08 21:00:00 20.2 16.8 17.8--- 8130.0wx-wx4wx---1021.9 996.4 3.1---wx-w1--
2019-06-08 20:00:00 20.9 16.5 17.9--- 7630.0wxwxwxwx2wx--21021.4 996.0 2.9---wx-w1--
2019-06-08 19:00:00 23.2 17.6 19.4--- 7130.0wxwxwx2wx--21019.8 994.6 1.9---wx---
2019-06-08 18:00:00 25.6 17.0 19.9 29.2 21.2- 5930.0wxwxwx2wx--21018.3 993.3 0.8- 0.012------
2019-06-08 17:00:00 26.8 16.1 19.9--- 5230.0wxwxwx3wx--31018.0 993.1 0.5---------
2019-06-08 16:00:00 28.0 17.2 20.9--- 5230.0wxwxwx3wx--31017.4 992.7 0.0---------
2019-06-08 15:00:00 28.4 16.3 20.6--- 4830.0wxwxwx3wx--31017.2 992.5 -0.1---------
2019-06-08 14:00:00 28.5 15.4 20.1--- 4530.0wxwxwxwx3wx--31017.3 992.6 -0.2---------
2019-06-08 13:00:00 28.1 14.3 19.4--- 4330.0wxwxwx3wx--31017.4 992.7 0.0---------
2019-06-08 12:00:00 27.7 16.9 20.6--- 5230.0wxwxwx2wx-721017.4 992.6 0.0- 0.06------
2019-06-08 11:00:00 26.3 16.0 19.6--- 5330.0wxwxwx2wx--21017.7 992.8 0.4---------
2019-06-08 10:00:00 26.8 19.2 21.6--- 6330.0wxwxwx2wx-721017.5 992.7 0.4---------
2019-06-08 09:00:00 24.9 17.9 20.2--- 6530.0wxwxwx2wx--21017.6 992.6 0.5---------
2019-06-08 08:00:00 24.2 17.7 19.8--- 6730.0wxwxwx1wx--11017.5 992.4 0.7---------
2019-06-08 07:00:00 22.9 17.6 19.3--- 7230.0wx-2wx--21017.5 992.3 0.9---------
2019-06-08 06:00:00 21.2 18.4 19.2 21.4 14.6 10 8430.0wx-2wx--21017.4 992.1 1.1- 0.012------
2019-06-08 05:00:00 18.6 17.6 17.9--- 9410.0wx-2wx--21017.2 991.7 0.9---------
2019-06-08 04:00:00 16.1 16.1 16.1--- 1008.0wx-2wx--21017.1 991.4 0.6---wx---
2019-06-08 03:00:00 14.8 14.8 14.8--- 1008.0wx-2wx--21016.8 991.0 0.2---wx---
2019-06-08 02:00:00 15.1 15.1 15.1--- 10010.0wx-2wx--21016.6 990.8 -0.2---------
2019-06-08 01:00:00 15.6 15.6 15.6--- 10010.0wx-2wx--21016.6 990.8 -0.3---------
2019-06-08 00:00:00 16.3 16.3 16.3--- 10010.0wx-1wx--11016.5 990.8 -0.2- 0.06------
3.2 ms

 

Print Friendly, PDF & Email